Terminal Aerodrome Forecast
Issued by NWS Wilmington, OH

Current Version | Previous Version | Graphics & Text | Print | Product List | Glossary On
Versions: 1 2 3 4 5 6 7 8 9 10 11 12 13 14 15 16
000
FTUS41 KILN 221100
TAFCMH
TAF
KCMH 221133Z 2212/2312 25008KT P6SM SCT018 OVC060
      TEMPO 2212/2214 BKN018
     FM221400 29014KT P6SM BKN015 OVC050
     FM221600 30015KT P6SM BKN022
     FM221800 31017G25KT P6SM SCT040
     FM230000 33012KT P6SM FEW040=

USA.gov is the U.S. government's official web portal to all federal, state and local government web resources and services.